Caroleen, North Carolina
Current Conditions -  °F | °C
As of 10:15 AM on Monday 24 Nov 2014 (Local Time) from KEHO Reporting Station
Overcast Overcast  
Wind Chill: 62°   Ceiling: 1500
Heat Index: 62°   Visibility: 10mi
Dew Point: 57°   Wind: 7mph
Humidity: 86%   Direction: 180°S
Pressure: 29.81"   Gusts: NA
Location:  35.28°N, 81.8°W
Report Text: KEHO 241515Z AUTO 18006KT 10SM BKN015 OVC023 16/14 A2981 RMK AO2 T01640140
Loading
Personal Weather Stations






























Interactive Weather Map New forecast layout! Learn more

10-Day Weather Forecast

Advertisements
Track Severe Weather on mobile